createdAt,value
2022-12-26T00:01:22.214Z,87.40
2022-12-26T00:03:49.118Z,87.30
2022-12-26T00:06:19.941Z,87.20
2022-12-26T00:08:47.730Z,87.20
2022-12-26T00:11:15.773Z,87.20
2022-12-26T00:13:43.244Z,87.30
2022-12-26T00:16:20.763Z,87.10
2022-12-26T00:18:48.235Z,87.10
2022-12-26T00:21:17.109Z,87.20
2022-12-26T00:23:45.135Z,87.20
2022-12-26T00:26:18.756Z,87.20
2022-12-26T00:28:46.051Z,87.10
2022-12-26T00:31:17.786Z,87.20
2022-12-26T00:33:44.957Z,87.20
2022-12-26T00:36:16.247Z,87.20
2022-12-26T00:38:44.426Z,87.30
2022-12-26T00:41:13.465Z,87.20
2022-12-26T00:43:40.223Z,87.30
2022-12-26T00:46:07.847Z,87.30
2022-12-26T00:48:34.768Z,87.20
2022-12-26T00:51:01.830Z,87.30
2022-12-26T00:53:29.049Z,87.20
2022-12-26T00:55:56.015Z,87.20
2022-12-26T00:58:23.651Z,87.20
2022-12-26T01:00:51.501Z,87.20
2022-12-26T01:03:19.247Z,87.20
2022-12-26T01:05:51.289Z,87.30
2022-12-26T01:08:24.130Z,87.20
2022-12-26T01:10:52.724Z,87.20
2022-12-26T01:13:19.679Z,87.20
2022-12-26T01:15:51.276Z,87.20
2022-12-26T01:18:18.661Z,87.20
2022-12-26T01:20:45.497Z,87.30
2022-12-26T01:23:12.289Z,87.20
2022-12-26T01:26:17.936Z,87.20
2022-12-26T01:28:27.014Z,87.20
2022-12-26T01:30:54.350Z,88.00
2022-12-26T01:33:21.134Z,87.20
2022-12-26T01:35:52.585Z,87.10
2022-12-26T01:38:20.532Z,87.20
2022-12-26T01:40:49.201Z,87.20
2022-12-26T01:43:16.980Z,87.20
2022-12-26T01:45:49.409Z,87.20
2022-12-26T01:48:25.220Z,87.20
2022-12-26T01:51:01.291Z,87.10
2022-12-26T01:53:39.871Z,87.10
2022-12-26T01:56:27.186Z,87.20
2022-12-26T01:59:01.367Z,87.00
2022-12-26T02:01:31.839Z,87.00
2022-12-26T02:04:20.967Z,87.10
2022-12-26T02:06:47.859Z,87.20
2022-12-26T02:09:14.686Z,87.10
2022-12-26T02:11:50.383Z,87.10
2022-12-26T02:14:38.149Z,87.10
2022-12-26T02:17:05.614Z,87.20
2022-12-26T02:19:32.315Z,87.10
2022-12-26T02:22:24.362Z,87.10
2022-12-26T02:25:32.101Z,87.10
2022-12-26T02:28:42.580Z,87.10
2022-12-26T02:31:23.832Z,87.00
2022-12-26T02:34:14.094Z,87.10
2022-12-26T02:37:30.254Z,87.10
2022-12-26T02:40:22.797Z,87.10
2022-12-26T02:43:08.756Z,87.10
2022-12-26T02:46:33.377Z,87.10
2022-12-26T02:49:12.595Z,87.10
2022-12-26T02:52:35.472Z,87.00
2022-12-26T02:55:33.909Z,87.10
2022-12-26T02:58:55.405Z,87.00
2022-12-26T03:01:54.976Z,87.00
2022-12-26T03:04:42.947Z,87.00
2022-12-26T03:07:41.339Z,87.00
2022-12-26T03:10:47.357Z,87.00
2022-12-26T03:13:23.177Z,87.00
2022-12-26T03:16:30.002Z,87.00
2022-12-26T03:19:03.843Z,87.00
2022-12-26T03:21:38.846Z,87.00
2022-12-26T03:24:09.141Z,86.90
2022-12-26T03:26:47.299Z,86.90
2022-12-26T03:29:39.629Z,86.90
2022-12-26T03:32:11.406Z,87.00
2022-12-26T03:34:43.786Z,86.90
2022-12-26T03:37:55.725Z,86.50
2022-12-26T03:41:11.999Z,86.50
2022-12-26T03:44:53.737Z,86.50
2022-12-26T03:48:07.198Z,86.40
2022-12-26T03:51:08.000Z,86.50
2022-12-26T03:54:35.141Z,86.60
2022-12-26T03:57:29.586Z,86.50
2022-12-26T04:00:25.747Z,86.50
2022-12-26T04:03:18.425Z,86.50
2022-12-26T04:06:07.788Z,86.50
2022-12-26T04:09:14.383Z,86.40
2022-12-26T04:12:03.768Z,86.40
2022-12-26T04:15:06.654Z,86.30
2022-12-26T04:18:16.627Z,86.40
2022-12-26T04:21:35.592Z,86.40
2022-12-26T04:24:31.155Z,86.40
2022-12-26T04:27:21.499Z,86.30
2022-12-26T04:30:06.671Z,86.40
2022-12-26T04:33:05.213Z,86.20
2022-12-26T04:36:04.192Z,86.20
2022-12-26T04:38:56.790Z,86.20
2022-12-26T04:41:44.227Z,86.10
2022-12-26T04:44:12.890Z,85.90
2022-12-26T04:46:43.892Z,85.90
2022-12-26T04:49:32.140Z,85.80
2022-12-26T04:52:01.920Z,85.80
2022-12-26T04:54:29.111Z,85.80
2022-12-26T04:56:56.117Z,85.80
2022-12-26T04:59:23.190Z,85.80
2022-12-26T05:02:09.158Z,85.90
2022-12-26T05:04:54.937Z,85.90
2022-12-26T05:07:49.701Z,85.80
2022-12-26T05:10:25.912Z,85.80
2022-12-26T05:12:53.610Z,85.80
2022-12-26T05:15:21.201Z,85.80
2022-12-26T05:18:06.603Z,85.70
2022-12-26T05:20:51.897Z,85.80
2022-12-26T05:23:44.650Z,85.70
2022-12-26T05:26:38.315Z,85.80
2022-12-26T05:29:05.497Z,85.80
2022-12-26T05:31:36.200Z,85.80
2022-12-26T05:34:15.880Z,85.80
2022-12-26T05:36:54.233Z,85.80
2022-12-26T05:39:21.055Z,85.80
2022-12-26T05:41:47.838Z,85.80
2022-12-26T05:44:14.635Z,85.80
2022-12-26T05:46:46.680Z,85.60
2022-12-26T05:49:13.550Z,85.80
2022-12-26T05:51:40.341Z,85.60
2022-12-26T05:54:07.216Z,85.60
2022-12-26T05:56:34.015Z,85.80
2022-12-26T05:59:01.628Z,85.80
2022-12-26T06:01:30.581Z,85.80
2022-12-26T06:03:59.630Z,85.90
2022-12-26T06:06:27.262Z,85.90
2022-12-26T06:08:55.963Z,85.80
2022-12-26T06:11:25.672Z,85.80
2022-12-26T06:13:53.156Z,85.80
2022-12-26T06:16:20.577Z,85.70
2022-12-26T06:18:48.688Z,85.70
2022-12-26T06:21:19.372Z,85.60
2022-12-26T06:23:46.572Z,85.50
2022-12-26T06:26:14.045Z,85.50
2022-12-26T06:28:42.478Z,85.40
2022-12-26T06:31:16.810Z,85.40
2022-12-26T06:33:44.345Z,85.40
2022-12-26T06:36:18.328Z,85.40
2022-12-26T06:38:45.893Z,85.40
2022-12-26T06:41:16.784Z,85.40
2022-12-26T06:43:44.561Z,85.40
2022-12-26T06:46:19.141Z,85.30
2022-12-26T06:48:46.194Z,85.40
2022-12-26T06:51:20.889Z,85.50
2022-12-26T06:53:49.196Z,85.40
2022-12-26T06:56:25.460Z,85.40
2022-12-26T06:59:00.375Z,85.40
2022-12-26T07:01:29.833Z,85.40
2022-12-26T07:03:57.294Z,85.40
2022-12-26T07:06:38.218Z,85.40
2022-12-26T07:09:10.837Z,85.40
2022-12-26T07:11:41.560Z,85.40
2022-12-26T07:14:09.496Z,85.50
2022-12-26T07:16:38.164Z,85.40
2022-12-26T07:19:05.841Z,85.30
2022-12-26T07:21:39.784Z,86.10
2022-12-26T07:24:14.287Z,85.30
2022-12-26T07:26:41.080Z,85.30
2022-12-26T07:29:09.540Z,85.30
2022-12-26T07:31:36.387Z,85.30
2022-12-26T07:34:03.309Z,85.30
2022-12-26T07:36:30.262Z,85.30
2022-12-26T07:38:57.402Z,85.30
2022-12-26T07:41:43.234Z,85.30
2022-12-26T07:44:11.090Z,85.30
2022-12-26T07:46:38.370Z,85.30
2022-12-26T07:49:05.251Z,85.20
2022-12-26T07:51:32.172Z,85.20
2022-12-26T07:53:59.055Z,85.10
2022-12-26T07:56:26.110Z,85.10
2022-12-26T07:58:53.152Z,85.20
2022-12-26T08:01:20.217Z,85.10
2022-12-26T08:03:49.641Z,85.10
2022-12-26T08:06:17.874Z,85.20
2022-12-26T08:08:50.884Z,85.20
2022-12-26T08:11:21.623Z,85.10
2022-12-26T08:13:48.623Z,85.10
2022-12-26T08:16:15.763Z,85.10
2022-12-26T08:18:43.191Z,85.10
2022-12-26T08:21:11.760Z,85.10
2022-12-26T08:23:38.925Z,85.10
2022-12-26T08:26:12.895Z,85.10
2022-12-26T08:28:39.903Z,85.20
2022-12-26T08:31:08.539Z,85.20
2022-12-26T08:33:35.948Z,85.60
2022-12-26T08:36:10.291Z,85.20
2022-12-26T08:38:37.646Z,85.20
2022-12-26T08:41:04.733Z,85.20
2022-12-26T08:44:10.035Z,85.20
2022-12-26T08:46:20.952Z,85.20
2022-12-26T08:48:48.199Z,85.20
2022-12-26T08:51:18.850Z,85.20
2022-12-26T08:53:49.409Z,85.20
2022-12-26T08:56:20.538Z,85.20
2022-12-26T08:58:47.905Z,85.20
2022-12-26T09:01:22.313Z,85.20
2022-12-26T09:03:53.793Z,85.20
2022-12-26T09:06:21.561Z,85.20
2022-12-26T09:08:48.628Z,85.20
2022-12-26T09:11:23.227Z,85.20
2022-12-26T09:13:50.083Z,85.30
2022-12-26T09:16:20.819Z,85.30
2022-12-26T09:18:48.931Z,85.30
2022-12-26T09:21:16.473Z,85.30
2022-12-26T09:23:44.603Z,85.30
2022-12-26T09:26:18.894Z,85.10
2022-12-26T09:28:47.079Z,85.30
2022-12-26T09:31:29.600Z,85.30
2022-12-26T09:33:56.839Z,85.40
2022-12-26T09:36:28.789Z,85.40
2022-12-26T09:38:58.057Z,85.30
2022-12-26T09:42:11.825Z,85.40
2022-12-26T09:45:12.371Z,85.40
2022-12-26T09:48:00.163Z,85.50
2022-12-26T09:50:39.623Z,85.50
2022-12-26T09:53:19.247Z,85.40
2022-12-26T09:56:00.351Z,85.40
2022-12-26T09:58:31.852Z,85.30
2022-12-26T10:01:14.968Z,85.30
2022-12-26T10:03:47.048Z,85.40
2022-12-26T10:06:26.338Z,85.30
2022-12-26T10:09:38.012Z,85.20
2022-12-26T10:12:24.525Z,85.20
2022-12-26T10:15:03.587Z,85.20
2022-12-26T10:18:08.966Z,85.20
2022-12-26T10:20:54.639Z,85.30
2022-12-26T10:23:39.656Z,85.20
2022-12-26T10:26:25.451Z,85.20
2022-12-26T10:29:00.640Z,85.30
2022-12-26T10:31:54.433Z,85.40
2022-12-26T10:34:45.119Z,85.30
2022-12-26T10:37:34.508Z,85.40
2022-12-26T10:40:39.700Z,85.40
2022-12-26T10:43:21.573Z,85.30
2022-12-26T10:46:21.750Z,85.30
2022-12-26T10:48:48.774Z,85.30
2022-12-26T10:51:16.164Z,85.20
2022-12-26T10:53:53.045Z,85.30
2022-12-26T10:56:22.977Z,85.30
2022-12-26T10:59:02.715Z,85.10
2022-12-26T11:01:31.221Z,84.90
2022-12-26T11:04:16.584Z,85.20
2022-12-26T11:06:44.881Z,85.20
2022-12-26T11:09:43.911Z,85.20
2022-12-26T11:12:26.484Z,85.20
2022-12-26T11:15:04.609Z,85.20
2022-12-26T11:17:44.666Z,85.20
2022-12-26T11:20:14.280Z,85.20
2022-12-26T11:22:45.083Z,85.20
2022-12-26T11:25:19.619Z,85.20
2022-12-26T11:27:56.502Z,85.20
2022-12-26T11:30:30.764Z,85.30
2022-12-26T11:33:13.513Z,85.20
2022-12-26T11:35:55.877Z,85.20
2022-12-26T11:38:42.415Z,85.30
2022-12-26T11:41:32.110Z,85.30
2022-12-26T11:44:11.647Z,85.30
2022-12-26T11:46:48.781Z,85.40
2022-12-26T11:49:32.355Z,85.40
2022-12-26T11:52:01.831Z,85.40
2022-12-26T11:54:48.929Z,85.50
2022-12-26T11:57:23.616Z,85.50
2022-12-26T11:59:53.023Z,85.40
2022-12-26T12:02:32.030Z,85.50
2022-12-26T12:05:09.179Z,85.80
2022-12-26T12:07:59.468Z,85.80
2022-12-26T12:10:57.233Z,85.60
2022-12-26T12:13:53.453Z,85.50
2022-12-26T12:16:40.852Z,85.50
2022-12-26T12:19:16.706Z,85.50
2022-12-26T12:22:07.657Z,85.70
2022-12-26T12:24:56.773Z,85.60
2022-12-26T12:27:30.132Z,85.50
2022-12-26T12:30:15.885Z,85.50
2022-12-26T12:33:14.258Z,85.50
2022-12-26T12:36:18.787Z,85.30
2022-12-26T12:38:57.460Z,85.30
2022-12-26T12:42:04.137Z,85.30
2022-12-26T12:45:07.595Z,85.40
2022-12-26T12:47:55.709Z,85.30
2022-12-26T12:50:44.739Z,85.40
2022-12-26T12:54:01.432Z,85.70
2022-12-26T12:57:12.339Z,85.40
2022-12-26T13:00:08.421Z,85.30
2022-12-26T13:02:58.714Z,85.30
2022-12-26T13:06:05.298Z,86.00
2022-12-26T13:08:45.629Z,85.20
2022-12-26T13:11:33.339Z,85.20
2022-12-26T13:14:23.493Z,85.00
2022-12-26T13:17:03.280Z,85.00
2022-12-26T13:19:56.143Z,85.00
2022-12-26T13:23:03.802Z,85.20
2022-12-26T13:25:46.932Z,85.20
2022-12-26T13:28:25.193Z,85.20
2022-12-26T13:30:56.369Z,85.10
2022-12-26T13:33:23.578Z,85.00
2022-12-26T13:36:02.283Z,85.00
2022-12-26T13:39:01.336Z,85.00
2022-12-26T13:41:48.341Z,85.00
2022-12-26T13:44:21.133Z,85.10
2022-12-26T13:46:47.875Z,85.00
2022-12-26T13:49:27.130Z,85.00
2022-12-26T13:51:57.827Z,85.20
2022-12-26T13:54:27.533Z,85.20
2022-12-26T13:57:15.435Z,85.30
2022-12-26T14:00:03.931Z,85.20
2022-12-26T14:03:20.783Z,85.20
2022-12-26T14:06:06.462Z,86.00
2022-12-26T14:09:02.404Z,85.20
2022-12-26T14:12:00.997Z,85.70
2022-12-26T14:15:12.212Z,85.70
2022-12-26T14:18:06.682Z,85.60
2022-12-26T14:21:21.341Z,85.60
2022-12-26T14:24:13.133Z,85.70
2022-12-26T14:27:10.234Z,85.70
2022-12-26T14:30:14.333Z,85.80
2022-12-26T14:33:35.261Z,85.80
2022-12-26T14:36:33.227Z,85.60
2022-12-26T14:39:41.364Z,85.80
2022-12-26T14:42:26.875Z,85.70
2022-12-26T14:44:59.270Z,86.00
2022-12-26T14:47:45.670Z,86.00
2022-12-26T14:50:39.199Z,85.90
2022-12-26T14:53:17.850Z,86.00
2022-12-26T14:56:10.638Z,85.80
2022-12-26T14:58:47.976Z,85.60
2022-12-26T15:01:15.655Z,85.70
2022-12-26T15:04:01.108Z,85.80
2022-12-26T15:06:48.941Z,85.70
2022-12-26T15:09:50.951Z,85.60
2022-12-26T15:12:48.614Z,85.70
2022-12-26T15:15:32.547Z,85.90
2022-12-26T15:18:43.181Z,85.80
2022-12-26T15:21:41.853Z,85.90
2022-12-26T15:28:31.169Z,85.70
2022-12-26T15:31:19.427Z,86.00
2022-12-26T15:34:26.075Z,86.00
2022-12-26T15:37:02.789Z,85.80
2022-12-26T15:39:40.378Z,85.80
2022-12-26T15:42:42.534Z,85.80
2022-12-26T15:45:36.386Z,85.80
2022-12-26T15:48:43.514Z,85.70
2022-12-26T15:51:18.756Z,85.60
2022-12-26T15:54:34.565Z,85.70
2022-12-26T15:57:05.667Z,85.80
2022-12-26T16:00:12.744Z,85.90
2022-12-26T16:02:48.960Z,86.00
2022-12-26T16:05:44.290Z,85.80
2022-12-26T16:09:00.286Z,85.80
2022-12-26T16:11:49.658Z,85.80
2022-12-26T16:14:30.428Z,85.70
2022-12-26T16:17:10.645Z,85.60
2022-12-26T16:19:37.722Z,85.60
2022-12-26T16:22:27.324Z,85.70
2022-12-26T16:24:55.023Z,86.40
2022-12-26T16:27:24.485Z,85.70
2022-12-26T16:29:59.520Z,85.80
2022-12-26T16:32:35.964Z,85.80
2022-12-26T16:35:04.745Z,85.80
2022-12-26T16:37:32.526Z,85.70
2022-12-26T16:40:24.087Z,85.60
2022-12-26T16:43:06.754Z,85.60
2022-12-26T16:45:37.630Z,85.60
